Village Mills, Texas
Current Conditions -  °F | °C
As of 7:15 PM on Monday 26 Jan 2015 (Local Time) from KBMT Reporting Station
Clear Clear  
Wind Chill: 56°   Ceiling: Unl
Heat Index: 56°   Visibility: 10mi
Dew Point: 42°   Wind: 5mph
Humidity: 60%   Direction: 240°WSW
Pressure: 30.15"   Gusts: NA
Location:  30.49°N, 94.4°W
Report Text: KBMT 270115Z AUTO 24004KT 10SM CLR 13/06 A3015 RMK AO2 T01320055
Loading
Personal Weather Stations






























Interactive Weather Map New forecast layout! Learn more

10-Day Weather Forecast

Advertisements
Track Severe Weather on mobile